sensor_id;sensor_type;location;lat;lon;timestamp;pressure;altitude;pressure_sealevel;temperature;humidity
13767;BME280;47980;48.794;9.176;2022-08-01T00:01:25;98244.59;;;22.87;52.79
13767;BME280;47980;48.794;9.176;2022-08-01T00:03:56;98234.19;;;22.86;52.88
13767;BME280;47980;48.794;9.176;2022-08-01T00:06:28;98235.97;;;23.03;52.06
13767;BME280;47980;48.794;9.176;2022-08-01T00:09:00;98246.78;;;23.03;52.41
13767;BME280;47980;48.794;9.176;2022-08-01T00:11:33;98247.06;;;23.12;52.03
13767;BME280;47980;48.794;9.176;2022-08-01T00:14:04;98244.78;;;23.11;52.06
13767;BME280;47980;48.794;9.176;2022-08-01T00:16:36;98241.19;;;23.21;51.68
13767;BME280;47980;48.794;9.176;2022-08-01T00:19:08;98242.09;;;23.07;52.30
13767;BME280;47980;48.794;9.176;2022-08-01T00:21:40;98249.88;;;23.01;52.52
13767;BME280;47980;48.794;9.176;2022-08-01T00:24:11;98249.88;;;23.01;53.09
13767;BME280;47980;48.794;9.176;2022-08-01T00:26:44;98252.97;;;23.03;52.46
13767;BME280;47980;48.794;9.176;2022-08-01T00:29:16;98247.22;;;22.98;52.45
13767;BME280;47980;48.794;9.176;2022-08-01T00:31:48;98248.03;;;22.95;53.27
13767;BME280;47980;48.794;9.176;2022-08-01T00:34:19;98247.38;;;22.80;53.91
13767;BME280;47980;48.794;9.176;2022-08-01T00:36:51;98256.38;;;22.73;54.64
13767;BME280;47980;48.794;9.176;2022-08-01T00:39:24;98255.22;;;22.71;54.17
13767;BME280;47980;48.794;9.176;2022-08-01T00:41:57;98257.63;;;22.62;54.85
13767;BME280;47980;48.794;9.176;2022-08-01T00:44:28;98258.88;;;22.50;55.26
13767;BME280;47980;48.794;9.176;2022-08-01T00:47:00;98258.13;;;22.49;54.71
13767;BME280;47980;48.794;9.176;2022-08-01T00:49:32;98250.91;;;22.35;55.75
13767;BME280;47980;48.794;9.176;2022-08-01T00:52:05;98249.00;;;22.32;55.59
13767;BME280;47980;48.794;9.176;2022-08-01T00:54:37;98251.22;;;22.45;54.99
13767;BME280;47980;48.794;9.176;2022-08-01T00:57:10;98260.97;;;22.31;56.10
13767;BME280;47980;48.794;9.176;2022-08-01T00:59:42;98255.59;;;22.28;56.86
13767;BME280;47980;48.794;9.176;2022-08-01T01:02:14;98260.28;;;22.20;57.50
13767;BME280;47980;48.794;9.176;2022-08-01T01:04:46;98255.09;;;22.40;56.59
13767;BME280;47980;48.794;9.176;2022-08-01T01:07:21;98253.22;;;22.37;56.25
13767;BME280;47980;48.794;9.176;2022-08-01T01:09:58;98260.53;;;22.37;56.82
13767;BME280;47980;48.794;9.176;2022-08-01T01:12:37;98260.59;;;22.29;57.52
13767;BME280;47980;48.794;9.176;2022-08-01T01:15:15;98268.69;;;22.29;57.25
13767;BME280;47980;48.794;9.176;2022-08-01T01:17:52;98262.97;;;22.24;57.47
13767;BME280;47980;48.794;9.176;2022-08-01T01:20:30;98270.66;;;22.25;57.94
13767;BME280;47980;48.794;9.176;2022-08-01T01:23:21;98266.38;;;22.31;57.52
13767;BME280;47980;48.794;9.176;2022-08-01T01:26:08;98270.63;;;22.32;57.43
13767;BME280;47980;48.794;9.176;2022-08-01T01:28:57;98267.97;;;22.25;58.76
13767;BME280;47980;48.794;9.176;2022-08-01T01:31:36;98272.31;;;22.12;59.22
13767;BME280;47980;48.794;9.176;2022-08-01T01:34:13;98273.13;;;22.05;59.33
13767;BME280;47980;48.794;9.176;2022-08-01T01:36:47;98277.38;;;22.03;59.24
13767;BME280;47980;48.794;9.176;2022-08-01T01:39:21;98274.31;;;22.01;59.63
13767;BME280;47980;48.794;9.176;2022-08-01T01:41:55;98271.91;;;22.10;58.87
13767;BME280;47980;48.794;9.176;2022-08-01T01:44:32;98275.78;;;22.09;59.39
13767;BME280;47980;48.794;9.176;2022-08-01T01:47:04;98281.63;;;22.00;60.34
13767;BME280;47980;48.794;9.176;2022-08-01T01:49:36;98277.75;;;22.05;60.53
13767;BME280;47980;48.794;9.176;2022-08-01T01:55:13;98284.00;;;21.91;61.14
13767;BME280;47980;48.794;9.176;2022-08-01T01:57:48;98280.13;;;21.92;60.67
13767;BME280;47980;48.794;9.176;2022-08-01T02:00:23;98277.81;;;21.98;60.48
13767;BME280;47980;48.794;9.176;2022-08-01T02:02:55;98285.50;;;21.99;61.33
13767;BME280;47980;48.794;9.176;2022-08-01T02:05:28;98281.66;;;21.97;61.40
13767;BME280;47980;48.794;9.176;2022-08-01T02:08:01;98280.84;;;22.00;61.13
13767;BME280;47980;48.794;9.176;2022-08-01T02:10:35;98273.91;;;22.02;61.27
13767;BME280;47980;48.794;9.176;2022-08-01T02:13:07;98277.88;;;21.83;62.11
13767;BME280;47980;48.794;9.176;2022-08-01T02:15:44;98282.19;;;21.74;62.84
13767;BME280;47980;48.794;9.176;2022-08-01T02:18:17;98274.84;;;21.74;63.13
13767;BME280;47980;48.794;9.176;2022-08-01T02:20:51;98274.84;;;21.71;63.29
13767;BME280;47980;48.794;9.176;2022-08-01T02:23:27;98280.66;;;21.69;63.58
13767;BME280;47980;48.794;9.176;2022-08-01T02:26:07;98277.56;;;21.67;64.37
13767;BME280;47980;48.794;9.176;2022-08-01T02:28:45;98284.91;;;21.67;63.81
13767;BME280;47980;48.794;9.176;2022-08-01T02:31:21;98289.97;;;21.65;63.70
13767;BME280;47980;48.794;9.176;2022-08-01T02:33:57;98292.66;;;21.61;64.52
13767;BME280;47980;48.794;9.176;2022-08-01T02:36:35;98288.84;;;21.55;64.36
13767;BME280;47980;48.794;9.176;2022-08-01T02:39:08;98291.59;;;21.44;65.31
13767;BME280;47980;48.794;9.176;2022-08-01T02:41:41;98294.69;;;21.39;66.50
13767;BME280;47980;48.794;9.176;2022-08-01T02:44:24;98298.13;;;21.50;64.87
13767;BME280;47980;48.794;9.176;2022-08-01T02:47:04;98297.75;;;21.45;65.82
13767;BME280;47980;48.794;9.176;2022-08-01T02:49:40;98295.78;;;21.52;65.10
13767;BME280;47980;48.794;9.176;2022-08-01T02:52:15;98301.22;;;21.45;66.05
13767;BME280;47980;48.794;9.176;2022-08-01T02:54:49;98295.06;;;21.30;66.79
13767;BME280;47980;48.794;9.176;2022-08-01T02:57:25;98297.41;;;21.35;66.53
13767;BME280;47980;48.794;9.176;2022-08-01T02:59:58;98299.69;;;21.37;66.12
13767;BME280;47980;48.794;9.176;2022-08-01T03:02:34;98298.16;;;21.29;66.40
13767;BME280;47980;48.794;9.176;2022-08-01T03:05:07;98293.53;;;21.26;66.36
13767;BME280;47980;48.794;9.176;2022-08-01T03:07:41;98303.97;;;21.20;67.75
13767;BME280;47980;48.794;9.176;2022-08-01T03:10:13;98292.41;;;21.20;67.85
13767;BME280;47980;48.794;9.176;2022-08-01T03:12:47;98296.28;;;21.11;67.51
13767;BME280;47980;48.794;9.176;2022-08-01T03:15:22;98295.13;;;21.05;67.76
13767;BME280;47980;48.794;9.176;2022-08-01T03:17:56;98298.59;;;21.06;68.17
13767;BME280;47980;48.794;9.176;2022-08-01T03:20:31;98297.44;;;21.14;67.71
13767;BME280;47980;48.794;9.176;2022-08-01T03:23:06;98295.91;;;21.06;69.11
13767;BME280;47980;48.794;9.176;2022-08-01T03:25:40;98309.78;;;21.04;69.52
13767;BME280;47980;48.794;9.176;2022-08-01T03:28:14;98307.50;;;21.03;69.27
13767;BME280;47980;48.794;9.176;2022-08-01T03:30:47;98308.63;;;21.02;69.78
13767;BME280;47980;48.794;9.176;2022-08-01T03:33:21;98305.16;;;21.01;68.99
13767;BME280;47980;48.794;9.176;2022-08-01T03:35:54;98305.94;;;20.98;69.06
13767;BME280;47980;48.794;9.176;2022-08-01T03:38:27;98307.09;;;21.01;69.42
13767;BME280;47980;48.794;9.176;2022-08-01T03:41:08;98310.59;;;20.90;69.88
13767;BME280;47980;48.794;9.176;2022-08-01T03:43:45;98311.75;;;20.86;69.89
13767;BME280;47980;48.794;9.176;2022-08-01T03:46:22;98313.28;;;20.83;69.42
13767;BME280;47980;48.794;9.176;2022-08-01T03:49:02;98317.16;;;20.82;70.50
13767;BME280;47980;48.794;9.176;2022-08-01T03:51:36;98317.56;;;20.81;70.32
13767;BME280;47980;48.794;9.176;2022-08-01T03:54:10;98313.69;;;20.75;70.37
13767;BME280;47980;48.794;9.176;2022-08-01T03:56:43;98316.00;;;20.69;71.09
13767;BME280;47980;48.794;9.176;2022-08-01T03:59:18;98322.56;;;20.79;70.80
13767;BME280;47980;48.794;9.176;2022-08-01T04:01:50;98311.75;;;20.75;70.16
13767;BME280;47980;48.794;9.176;2022-08-01T04:04:24;98317.56;;;20.70;70.43
13767;BME280;47980;48.794;9.176;2022-08-01T04:06:56;98321.41;;;20.62;70.17
13767;BME280;47980;48.794;9.176;2022-08-01T04:09:34;98319.09;;;20.71;69.77
13767;BME280;47980;48.794;9.176;2022-08-01T04:12:06;98315.22;;;20.86;69.32
13767;BME280;47980;48.794;9.176;2022-08-01T04:14:38;98326.75;;;21.08;68.74
13767;BME280;47980;48.794;9.176;2022-08-01T04:17:11;98322.88;;;21.09;68.27
13767;BME280;47980;48.794;9.176;2022-08-01T04:19:45;98321.28;;;21.41;67.37
13767;BME280;47980;48.794;9.176;2022-08-01T04:22:17;98321.25;;;21.51;67.23
13767;BME280;47980;48.794;9.176;2022-08-01T04:24:53;98321.19;;;21.66;65.82
13767;BME280;47980;48.794;9.176;2022-08-01T04:27:31;98328.81;;;21.81;65.86
13767;BME280;47980;48.794;9.176;2022-08-01T04:30:06;98326.13;;;21.78;65.89
13767;BME280;47980;48.794;9.176;2022-08-01T04:32:39;98329.13;;;22.01;65.10
13767;BME280;47980;48.794;9.176;2022-08-01T04:35:15;98333.25;;;22.24;64.43
13767;BME280;47980;48.794;9.176;2022-08-01T04:37:50;98332.03;;;22.32;63.99
13767;BME280;47980;48.794;9.176;2022-08-01T04:40:23;98337.75;;;22.41;63.88
13767;BME280;47980;48.794;9.176;2022-08-01T04:42:56;98338.31;;;22.70;63.52
13767;BME280;47980;48.794;9.176;2022-08-01T04:45:29;98344.50;;;22.71;62.86
13767;BME280;47980;48.794;9.176;2022-08-01T04:48:01;98348.16;;;22.91;62.25
13767;BME280;47980;48.794;9.176;2022-08-01T04:50:38;98339.66;;;22.96;62.62
13767;BME280;47980;48.794;9.176;2022-08-01T04:53:13;98336.03;;;23.10;61.85
13767;BME280;47980;48.794;9.176;2022-08-01T04:56:00;98340.59;;;23.20;61.53
13767;BME280;47980;48.794;9.176;2022-08-01T04:58:32;98333.75;;;23.43;60.97
13767;BME280;47980;48.794;9.176;2022-08-01T05:01:04;98322.16;;;23.42;60.79
13767;BME280;47980;48.794;9.176;2022-08-01T05:03:55;98322.75;;;23.23;61.02
13767;BME280;47980;48.794;9.176;2022-08-01T05:06:32;98321.53;;;23.27;60.95
13767;BME280;47980;48.794;9.176;2022-08-01T05:09:06;98319.34;;;23.15;61.25
13767;BME280;47980;48.794;9.176;2022-08-01T05:11:38;98325.75;;;22.91;62.71
13767;BME280;47980;48.794;9.176;2022-08-01T05:14:10;98316.47;;;22.95;63.05
13767;BME280;47980;48.794;9.176;2022-08-01T05:16:42;98317.03;;;23.17;61.70
13767;BME280;47980;48.794;9.176;2022-08-01T05:19:14;98322.13;;;23.46;61.39
13767;BME280;47980;48.794;9.176;2022-08-01T05:21:47;98316.91;;;23.59;61.04
13767;BME280;47980;48.794;9.176;2022-08-01T05:24:18;98319.16;;;23.64;61.59
13767;BME280;47980;48.794;9.176;2022-08-01T05:26:50;98325.75;;;23.97;60.22
13767;BME280;47980;48.794;9.176;2022-08-01T05:29:22;98326.13;;;23.95;60.08
13767;BME280;47980;48.794;9.176;2022-08-01T05:31:53;98323.13;;;23.90;60.88
13767;BME280;47980;48.794;9.176;2022-08-01T05:34:26;98323.66;;;24.08;59.81
13767;BME280;47980;48.794;9.176;2022-08-01T05:37:00;98323.56;;;24.15;59.62
13767;BME280;47980;48.794;9.176;2022-08-01T05:39:32;98326.47;;;24.01;59.71
13767;BME280;47980;48.794;9.176;2022-08-01T05:42:04;98335.56;;;24.14;59.81
13767;BME280;47980;48.794;9.176;2022-08-01T05:44:36;98335.41;;;24.25;59.41
13767;BME280;47980;48.794;9.176;2022-08-01T05:47:08;98337.25;;;24.05;59.62
13767;BME280;47980;48.794;9.176;2022-08-01T05:49:39;98340.97;;;23.87;60.41
13767;BME280;47980;48.794;9.176;2022-08-01T05:52:12;98338.41;;;24.58;58.75
13767;BME280;47980;48.794;9.176;2022-08-01T05:54:44;98344.44;;;24.45;58.83
13767;BME280;47980;48.794;9.176;2022-08-01T05:57:16;98346.25;;;24.76;58.60
13767;BME280;47980;48.794;9.176;2022-08-01T05:59:47;98343.72;;;24.88;58.41
13767;BME280;47980;48.794;9.176;2022-08-01T06:02:19;98341.53;;;24.56;58.72
13767;BME280;47980;48.794;9.176;2022-08-01T06:04:51;98343.22;;;24.73;58.30
13767;BME280;47980;48.794;9.176;2022-08-01T06:07:24;98346.38;;;24.45;59.17
13767;BME280;47980;48.794;9.176;2022-08-01T06:09:56;98342.09;;;24.17;60.40
13767;BME280;47980;48.794;9.176;2022-08-01T06:12:27;98340.84;;;24.52;58.93
13767;BME280;47980;48.794;9.176;2022-08-01T06:14:59;98340.59;;;24.66;59.46
13767;BME280;47980;48.794;9.176;2022-08-01T06:17:31;98342.13;;;24.67;59.59
13767;BME280;47980;48.794;9.176;2022-08-01T06:20:06;98343.31;;;25.13;58.96
13767;BME280;47980;48.794;9.176;2022-08-01T06:22:40;98348.03;;;25.09;57.92
13767;BME280;47980;48.794;9.176;2022-08-01T06:25:11;98346.38;;;25.55;56.59
13767;BME280;47980;48.794;9.176;2022-08-01T06:27:43;98333.50;;;25.39;57.80
13767;BME280;47980;48.794;9.176;2022-08-01T06:30:15;98342.13;;;25.54;56.80
13767;BME280;47980;48.794;9.176;2022-08-01T06:32:47;98334.91;;;25.48;56.88
13767;BME280;47980;48.794;9.176;2022-08-01T06:35:18;98340.66;;;25.30;57.91
13767;BME280;47980;48.794;9.176;2022-08-01T06:37:52;98338.44;;;25.44;57.82
13767;BME280;47980;48.794;9.176;2022-08-01T06:40:24;98333.00;;;25.44;57.45
13767;BME280;47980;48.794;9.176;2022-08-01T06:42:55;98335.47;;;25.95;56.51
13767;BME280;47980;48.794;9.176;2022-08-01T06:45:27;98334.72;;;25.95;55.88
13767;BME280;47980;48.794;9.176;2022-08-01T06:47:59;98342.84;;;25.38;56.77
13767;BME280;47980;48.794;9.176;2022-08-01T06:50:31;98340.66;;;25.30;57.62
13767;BME280;47980;48.794;9.176;2022-08-01T06:53:04;98333.91;;;25.58;56.98
13767;BME280;47980;48.794;9.176;2022-08-01T06:55:38;98340.00;;;26.02;55.87
13767;BME280;47980;48.794;9.176;2022-08-01T06:58:09;98334.69;;;26.31;55.33
13767;BME280;47980;48.794;9.176;2022-08-01T07:00:41;98337.56;;;26.24;54.99
13767;BME280;47980;48.794;9.176;2022-08-01T07:03:13;98339.63;;;25.83;56.02
13767;BME280;47980;48.794;9.176;2022-08-01T07:05:44;98331.44;;;26.20;54.70
13767;BME280;47980;48.794;9.176;2022-08-01T07:08:18;98337.34;;;26.67;53.73
13767;BME280;47980;48.794;9.176;2022-08-01T07:10:49;98343.78;;;26.40;53.81
13767;BME280;47980;48.794;9.176;2022-08-01T07:13:21;98345.00;;;25.87;55.11
13767;BME280;47980;48.794;9.176;2022-08-01T07:15:55;98340.34;;;25.28;56.81
13767;BME280;47980;48.794;9.176;2022-08-01T07:18:27;98350.56;;;25.60;56.21
13767;BME280;47980;48.794;9.176;2022-08-01T07:20:58;98349.56;;;25.70;55.81
13767;BME280;47980;48.794;9.176;2022-08-01T07:23:32;98349.44;;;25.77;56.55
13767;BME280;47980;48.794;9.176;2022-08-01T07:26:03;98347.56;;;25.94;56.25
13767;BME280;47980;48.794;9.176;2022-08-01T07:28:36;98346.53;;;26.40;55.25
13767;BME280;47980;48.794;9.176;2022-08-01T07:31:08;98338.94;;;26.32;53.94
13767;BME280;47980;48.794;9.176;2022-08-01T07:33:40;98336.38;;;26.08;54.76
13767;BME280;47980;48.794;9.176;2022-08-01T07:36:12;98335.50;;;26.48;53.56
13767;BME280;47980;48.794;9.176;2022-08-01T07:38:45;98336.00;;;26.59;53.32
13767;BME280;47980;48.794;9.176;2022-08-01T07:41:17;98340.78;;;26.55;53.28
13767;BME280;47980;48.794;9.176;2022-08-01T07:43:49;98336.97;;;25.60;56.23
13767;BME280;47980;48.794;9.176;2022-08-01T07:46:21;98329.75;;;26.42;54.55
13767;BME280;47980;48.794;9.176;2022-08-01T07:48:53;98326.09;;;26.65;53.80
13767;BME280;47980;48.794;9.176;2022-08-01T07:51:24;98322.38;;;27.21;53.28
13767;BME280;47980;48.794;9.176;2022-08-01T07:53:58;98327.41;;;27.06;52.07
13767;BME280;47980;48.794;9.176;2022-08-01T07:56:29;98329.66;;;26.95;53.33
13767;BME280;47980;48.794;9.176;2022-08-01T07:59:01;98321.13;;;26.93;52.52
13767;BME280;47980;48.794;9.176;2022-08-01T08:01:33;98325.66;;;26.83;52.83
13767;BME280;47980;48.794;9.176;2022-08-01T08:04:04;98331.91;;;27.83;50.75
13767;BME280;47980;48.794;9.176;2022-08-01T08:06:36;98323.19;;;27.76;50.66
13767;BME280;47980;48.794;9.176;2022-08-01T08:09:09;98325.31;;;27.68;51.01
13767;BME280;47980;48.794;9.176;2022-08-01T08:11:42;98324.03;;;27.02;52.55
13767;BME280;47980;48.794;9.176;2022-08-01T08:14:13;98325.28;;;26.97;52.94
13767;BME280;47980;48.794;9.176;2022-08-01T08:16:45;98319.00;;;27.00;53.25
13767;BME280;47980;48.794;9.176;2022-08-01T08:19:17;98324.00;;;26.73;53.03
13767;BME280;47980;48.794;9.176;2022-08-01T08:21:49;98326.38;;;27.16;52.05
13767;BME280;47980;48.794;9.176;2022-08-01T08:24:22;98318.81;;;27.91;50.07
13767;BME280;47980;48.794;9.176;2022-08-01T08:26:56;98326.03;;;28.11;49.50
13767;BME280;47980;48.794;9.176;2022-08-01T08:29:29;98327.34;;;27.51;50.67
13767;BME280;47980;48.794;9.176;2022-08-01T08:32:02;98322.91;;;26.99;51.88
13767;BME280;47980;48.794;9.176;2022-08-01T08:34:34;98320.25;;;26.50;53.48
13767;BME280;47980;48.794;9.176;2022-08-01T08:37:06;98323.38;;;26.16;54.45
13767;BME280;47980;48.794;9.176;2022-08-01T08:39:39;98325.91;;;26.39;54.90
13767;BME280;47980;48.794;9.176;2022-08-01T08:42:11;98327.72;;;26.79;52.51
13767;BME280;47980;48.794;9.176;2022-08-01T08:44:43;98318.59;;;27.31;52.43
13767;BME280;47980;48.794;9.176;2022-08-01T08:47:15;98322.16;;;27.57;51.76
13767;BME280;47980;48.794;9.176;2022-08-01T08:49:48;98315.34;;;27.91;50.43
13767;BME280;47980;48.794;9.176;2022-08-01T08:52:22;98318.81;;;28.17;49.86
13767;BME280;47980;48.794;9.176;2022-08-01T08:54:55;98322.31;;;27.79;50.25
13767;BME280;47980;48.794;9.176;2022-08-01T08:57:28;98314.88;;;27.92;50.71
13767;BME280;47980;48.794;9.176;2022-08-01T09:00:00;98321.91;;;27.51;51.12
13767;BME280;47980;48.794;9.176;2022-08-01T09:02:32;98319.69;;;27.88;49.78
13767;BME280;47980;48.794;9.176;2022-08-01T09:05:04;98324.06;;;27.44;50.65
13767;BME280;47980;48.794;9.176;2022-08-01T09:07:36;98318.66;;;27.69;50.74
13767;BME280;47980;48.794;9.176;2022-08-01T09:10:10;98325.56;;;28.63;48.54
13767;BME280;47980;48.794;9.176;2022-08-01T09:13:06;98317.78;;;28.96;48.03
13767;BME280;47980;48.794;9.176;2022-08-01T09:15:43;98337.94;;;28.42;49.59
13767;BME280;47980;48.794;9.176;2022-08-01T09:18:29;98327.94;;;28.74;47.31
13767;BME280;47980;48.794;9.176;2022-08-01T09:21:10;98321.97;;;28.28;49.03
13767;BME280;47980;48.794;9.176;2022-08-01T09:23:46;98325.47;;;28.28;48.90
13767;BME280;47980;48.794;9.176;2022-08-01T09:26:21;98328.19;;;28.54;48.40
13767;BME280;47980;48.794;9.176;2022-08-01T09:29:00;98331.16;;;27.83;50.08
13767;BME280;47980;48.794;9.176;2022-08-01T09:31:40;98324.31;;;27.62;50.85
13767;BME280;47980;48.794;9.176;2022-08-01T09:34:14;98342.19;;;28.30;50.13
13767;BME280;47980;48.794;9.176;2022-08-01T09:36:48;98332.88;;;28.66;48.16
13767;BME280;47980;48.794;9.176;2022-08-01T09:39:25;98331.50;;;27.56;50.87
13767;BME280;47980;48.794;9.176;2022-08-01T09:42:00;98335.06;;;27.40;50.71
13767;BME280;47980;48.794;9.176;2022-08-01T09:44:38;98332.34;;;27.40;50.97
13767;BME280;47980;48.794;9.176;2022-08-01T09:47:12;98333.06;;;27.57;50.76
13767;BME280;47980;48.794;9.176;2022-08-01T09:49:44;98342.16;;;28.18;50.16
13767;BME280;47980;48.794;9.176;2022-08-01T09:52:19;98340.25;;;28.44;48.67
13767;BME280;47980;48.794;9.176;2022-08-01T09:55:07;98335.94;;;28.90;47.39
13767;BME280;47980;48.794;9.176;2022-08-01T09:57:54;98337.53;;;28.78;47.98
13767;BME280;47980;48.794;9.176;2022-08-01T10:00:27;98344.25;;;28.39;49.30
13767;BME280;47980;48.794;9.176;2022-08-01T10:02:59;98343.06;;;28.02;49.94
13767;BME280;47980;48.794;9.176;2022-08-01T10:05:32;98321.88;;;28.06;49.86
13767;BME280;47980;48.794;9.176;2022-08-01T10:08:05;98335.09;;;28.46;49.09
13767;BME280;47980;48.794;9.176;2022-08-01T10:10:36;98331.34;;;27.89;49.70
13767;BME280;47980;48.794;9.176;2022-08-01T10:13:11;98323.75;;;27.96;49.65
13767;BME280;47980;48.794;9.176;2022-08-01T10:15:43;98327.22;;;28.22;49.50
13767;BME280;47980;48.794;9.176;2022-08-01T10:18:15;98319.34;;;28.37;48.33
13767;BME280;47980;48.794;9.176;2022-08-01T10:20:47;98320.03;;;28.16;49.61
13767;BME280;47980;48.794;9.176;2022-08-01T10:23:20;98321.56;;;28.29;49.05
13767;BME280;47980;48.794;9.176;2022-08-01T10:25:53;98314.13;;;28.43;48.46
13767;BME280;47980;48.794;9.176;2022-08-01T10:28:29;98313.38;;;28.17;49.84
13767;BME280;47980;48.794;9.176;2022-08-01T10:31:01;98310.53;;;28.33;48.58
13767;BME280;47980;48.794;9.176;2022-08-01T10:33:33;98310.66;;;28.77;47.38
13767;BME280;47980;48.794;9.176;2022-08-01T10:36:06;98304.06;;;28.87;47.44
13767;BME280;47980;48.794;9.176;2022-08-01T10:38:39;98299.41;;;28.40;47.83
13767;BME280;47980;48.794;9.176;2022-08-01T10:41:12;98307.34;;;27.71;49.39
13767;BME280;47980;48.794;9.176;2022-08-01T10:43:46;98311.91;;;27.61;49.69
13767;BME280;47980;48.794;9.176;2022-08-01T10:46:19;98301.69;;;28.29;48.73
13767;BME280;47980;48.794;9.176;2022-08-01T10:48:54;98299.94;;;27.84;48.60
13767;BME280;47980;48.794;9.176;2022-08-01T10:51:28;98306.72;;;27.38;49.82
13767;BME280;47980;48.794;9.176;2022-08-01T10:54:06;98303.72;;;27.61;49.60
13767;BME280;47980;48.794;9.176;2022-08-01T10:56:39;98295.88;;;28.27;48.25
13767;BME280;47980;48.794;9.176;2022-08-01T10:59:20;98298.06;;;28.45;47.60
13767;BME280;47980;48.794;9.176;2022-08-01T11:01:56;98293.22;;;28.96;46.41
13767;BME280;47980;48.794;9.176;2022-08-01T11:04:34;98287.84;;;29.27;46.79
13767;BME280;47980;48.794;9.176;2022-08-01T11:07:16;98285.38;;;28.86;46.29
13767;BME280;47980;48.794;9.176;2022-08-01T11:10:01;98286.22;;;28.00;48.43
13767;BME280;47980;48.794;9.176;2022-08-01T11:12:38;98278.88;;;28.23;48.17
13767;BME280;47980;48.794;9.176;2022-08-01T11:15:22;98287.63;;;27.79;48.63
13767;BME280;47980;48.794;9.176;2022-08-01T11:18:03;98271.78;;;28.73;46.41
13767;BME280;47980;48.794;9.176;2022-08-01T11:20:55;98267.16;;;28.83;47.94
13767;BME280;47980;48.794;9.176;2022-08-01T11:23:29;98269.06;;;28.25;47.80
13767;BME280;47980;48.794;9.176;2022-08-01T11:26:13;98270.19;;;28.63;46.40
13767;BME280;47980;48.794;9.176;2022-08-01T11:29:17;98268.66;;;28.62;46.15
13767;BME280;47980;48.794;9.176;2022-08-01T11:31:50;98258.31;;;28.78;45.89
13767;BME280;47980;48.794;9.176;2022-08-01T11:34:51;98247.50;;;29.41;45.32
13767;BME280;47980;48.794;9.176;2022-08-01T11:37:24;98253.13;;;29.15;46.13
13767;BME280;47980;48.794;9.176;2022-08-01T11:40:16;98249.94;;;28.95;45.70
13767;BME280;47980;48.794;9.176;2022-08-01T11:42:49;98243.53;;;29.33;45.83
13767;BME280;47980;48.794;9.176;2022-08-01T11:45:21;98245.13;;;29.74;45.49
13767;BME280;47980;48.794;9.176;2022-08-01T11:48:19;98244.97;;;30.18;43.14
13767;BME280;47980;48.794;9.176;2022-08-01T11:50:52;98242.69;;;29.76;44.37
13767;BME280;47980;48.794;9.176;2022-08-01T11:53:24;98247.44;;;29.54;44.80
13767;BME280;47980;48.794;9.176;2022-08-01T11:55:55;98246.91;;;29.15;45.12
13767;BME280;47980;48.794;9.176;2022-08-01T11:58:28;98245.00;;;28.46;46.80
13767;BME280;47980;48.794;9.176;2022-08-01T12:01:00;98252.53;;;28.54;46.15
13767;BME280;47980;48.794;9.176;2022-08-01T12:03:33;98242.16;;;28.49;45.87
13767;BME280;47980;48.794;9.176;2022-08-01T12:06:05;98231.28;;;29.78;44.15
13767;BME280;47980;48.794;9.176;2022-08-01T12:08:37;98236.28;;;30.19;43.36
13767;BME280;47980;48.794;9.176;2022-08-01T12:11:09;98225.22;;;30.60;42.45
13767;BME280;47980;48.794;9.176;2022-08-01T12:13:42;98215.94;;;30.76;42.05
13767;BME280;47980;48.794;9.176;2022-08-01T12:16:15;98216.25;;;30.41;41.60
13767;BME280;47980;48.794;9.176;2022-08-01T12:18:48;98209.91;;;29.54;43.51
13767;BME280;47980;48.794;9.176;2022-08-01T12:21:23;98211.00;;;28.60;44.47
13767;BME280;47980;48.794;9.176;2022-08-01T12:24:01;98214.41;;;28.51;45.64
13767;BME280;47980;48.794;9.176;2022-08-01T12:26:40;98211.38;;;28.71;45.79
13767;BME280;47980;48.794;9.176;2022-08-01T12:29:36;98216.78;;;28.84;45.45
13767;BME280;47980;48.794;9.176;2022-08-01T12:32:26;98217.59;;;28.37;46.48
13767;BME280;47980;48.794;9.176;2022-08-01T12:35:04;98219.19;;;28.82;46.58
13767;BME280;47980;48.794;9.176;2022-08-01T12:37:36;98208.13;;;29.29;45.14
13767;BME280;47980;48.794;9.176;2022-08-01T12:40:13;98212.22;;;29.34;45.10
13767;BME280;47980;48.794;9.176;2022-08-01T12:42:48;98212.34;;;29.21;45.40
13767;BME280;47980;48.794;9.176;2022-08-01T12:45:23;98216.59;;;29.53;45.41
13767;BME280;47980;48.794;9.176;2022-08-01T12:47:56;98219.28;;;29.84;43.38
13767;BME280;47980;48.794;9.176;2022-08-01T12:50:31;98212.63;;;29.85;43.00
13767;BME280;47980;48.794;9.176;2022-08-01T12:53:04;98212.03;;;29.90;43.59
13767;BME280;47980;48.794;9.176;2022-08-01T12:55:44;98196.66;;;29.84;43.44
13767;BME280;47980;48.794;9.176;2022-08-01T12:58:17;98205.31;;;29.42;43.95
13767;BME280;47980;48.794;9.176;2022-08-01T13:00:50;98203.03;;;29.81;44.12
13767;BME280;47980;48.794;9.176;2022-08-01T13:03:33;98189.19;;;29.75;43.46
13767;BME280;47980;48.794;9.176;2022-08-01T13:06:13;98202.53;;;30.32;42.03
13767;BME280;47980;48.794;9.176;2022-08-01T13:08:45;98206.53;;;30.77;42.13
13767;BME280;47980;48.794;9.176;2022-08-01T13:11:18;98202.72;;;30.83;42.60
13767;BME280;47980;48.794;9.176;2022-08-01T13:13:53;98201.47;;;30.38;42.98
13767;BME280;47980;48.794;9.176;2022-08-01T13:16:27;98203.44;;;30.93;42.60
13767;BME280;47980;48.794;9.176;2022-08-01T13:19:00;98199.50;;;30.94;42.63
13767;BME280;47980;48.794;9.176;2022-08-01T13:21:35;98195.53;;;30.49;43.30
13767;BME280;47980;48.794;9.176;2022-08-01T13:24:09;98189.94;;;30.80;42.38
13767;BME280;47980;48.794;9.176;2022-08-01T13:26:44;98193.25;;;30.20;43.54
13767;BME280;47980;48.794;9.176;2022-08-01T13:29:19;98195.28;;;29.79;43.85
13767;BME280;47980;48.794;9.176;2022-08-01T13:31:53;98189.94;;;30.25;43.31
13767;BME280;47980;48.794;9.176;2022-08-01T13:34:31;98193.38;;;30.07;43.43
13767;BME280;47980;48.794;9.176;2022-08-01T13:37:06;98193.19;;;29.92;43.14
13767;BME280;47980;48.794;9.176;2022-08-01T13:39:38;98201.84;;;29.50;44.38
13767;BME280;47980;48.794;9.176;2022-08-01T13:42:15;98195.75;;;29.46;44.81